This is the latest recevied weather packets stored in our database for station/object JA3VQW-13. If no packets are shown the sender has not sent any weather packets the latest 10 day(s).
| Time | Temp. | Humidity | Pressure | Rain* | Wind** | Luminosity | Snow |
|---|---|---|---|---|---|---|---|
| 1777976791 | 20° C | 22% | 1010 hPa | 0 mm | - | - | - |
| 1777975891 | 20° C | 23% | 1010 hPa | 0 mm | - | - | - |
| 1777975578 | 20° C | 24% | 1010 hPa | 0 mm | - | - | - |
| 1777974991 | 20.56° C | 27% | 1010 hPa | 0 mm | - | - | - |
| 1777973778 | 21.11° C | 25% | 1010 hPa | 0 mm | - | - | - |
| 1777972293 | 23.33° C | 21% | 1009 hPa | 0 mm | - | - | - |
| 1777971977 | 23.89° C | 21% | 1009 hPa | 0 mm | - | - | - |
| 1777971392 | 24.44° C | 18% | 1009 hPa | 0 mm | - | - | - |
| 1777970492 | 25.56° C | 15% | 1009 hPa | 0 mm | - | - | - |
| 1777970177 | 25.56° C | 15% | 1010 hPa | 0 mm | - | - | - |
| 1777969592 | 26.11° C | 15% | 1010 hPa | 0 mm | - | - | - |
| 1777968693 | 27.78° C | 14% | 1010 hPa | 0 mm | - | - | - |
| 1777968379 | 27.78° C | 14% | 1010 hPa | 0 mm | - | - | - |
| 1777967792 | 28.89° C | 14% | 1010 hPa | 0 mm | - | - | - |
| 1777966892 | 29.44° C | 13% | 1009 hPa | 0 mm | - | - | - |
| 1777966578 | 30° C | 13% | 1009 hPa | 0 mm | - | - | - |
| 1777965992 | 30.56° C | 13% | 1009 hPa | 0 mm | - | - | - |
| 1777965091 | 30.56° C | 13% | 1009 hPa | 0 mm | - | - | - |
| 1777964779 | 30.56° C | 13% | 1009 hPa | 0 mm | - | - | - |
| 1777964191 | 30° C | 13% | 1009 hPa | 0 mm | - | - | - |
| 1777963291 | 28.89° C | 13% | 1009 hPa | 0 mm | - | - | - |
| 1777962978 | 28.89° C | 13% | 1009 hPa | 0 mm | - | - | - |
| 1777962391 | 30° C | 13% | 1009 hPa | 0 mm | - | - | - |
| 1777961491 | 29.44° C | 13% | 1009 hPa | 0 mm | - | - | - |
| 1777961178 | 28.89° C | 14% | 1009 hPa | 0 mm | - | - | - |
* Rain latest hour (hover to see other rain measurements)
** Current wind speed in m/s (hover to see current wind gust speed)